Terminal Aerodrome Forecast
Issued by NWS

Home | Current Version | Previous Version | Text Only | Print | Product List | Glossary On
Versions: 1 2 3 4 5 6 7 8 9 10 11 12 13 14 15 16
000
FTUS43 KSGF 130500
TAFBBG
TAF
KBBG 130520Z 1306/1406 20004KT P6SM FEW200
     FM131400 23010KT P6SM FEW050 SCT250
     FM140000 VRB03KT P6SM SCT050 BKN250 PROB30 1400/1406 6SM -TSRA
      BR OVC040CB=

USA.gov is the U.S. government's official web portal to all federal, state and local government web resources and services.